sensor_id;sensor_type;location;lat;lon;timestamp;P1;durP1;ratioP1;P2;durP2;ratioP2
8046;SDS011;67150;42.516;23.358;2023-04-10T00:01:26;7.87;;;5.20;;
8046;SDS011;67150;42.516;23.358;2023-04-10T00:03:56;4.90;;;4.50;;
8046;SDS011;67150;42.516;23.358;2023-04-10T00:06:24;5.50;;;5.00;;
8046;SDS011;67150;42.516;23.358;2023-04-10T00:08:52;6.30;;;5.60;;
8046;SDS011;67150;42.516;23.358;2023-04-10T00:11:21;5.50;;;5.00;;
8046;SDS011;67150;42.516;23.358;2023-04-10T00:13:48;5.33;;;4.77;;
8046;SDS011;67150;42.516;23.358;2023-04-10T00:16:15;5.27;;;4.77;;
8046;SDS011;67150;42.516;23.358;2023-04-10T00:18:42;5.17;;;4.77;;
8046;SDS011;67150;42.516;23.358;2023-04-10T00:21:10;5.40;;;4.90;;
8046;SDS011;67150;42.516;23.358;2023-04-10T00:23:37;5.00;;;4.60;;
8046;SDS011;67150;42.516;23.358;2023-04-10T00:26:04;4.90;;;4.50;;
8046;SDS011;67150;42.516;23.358;2023-04-10T00:28:33;5.40;;;4.90;;
8046;SDS011;67150;42.516;23.358;2023-04-10T00:31:02;5.53;;;5.07;;
8046;SDS011;67150;42.516;23.358;2023-04-10T00:33:30;4.63;;;4.23;;
8046;SDS011;67150;42.516;23.358;2023-04-10T00:35:57;5.60;;;4.90;;
8046;SDS011;67150;42.516;23.358;2023-04-10T00:38:24;5.20;;;4.73;;
8046;SDS011;67150;42.516;23.358;2023-04-10T00:40:51;4.87;;;4.47;;
8046;SDS011;67150;42.516;23.358;2023-04-10T00:43:19;5.10;;;4.70;;
8046;SDS011;67150;42.516;23.358;2023-04-10T00:45:50;4.77;;;4.37;;
8046;SDS011;67150;42.516;23.358;2023-04-10T00:48:17;5.20;;;4.70;;
8046;SDS011;67150;42.516;23.358;2023-04-10T00:50:44;5.07;;;4.67;;
8046;SDS011;67150;42.516;23.358;2023-04-10T00:53:12;4.70;;;4.30;;
8046;SDS011;67150;42.516;23.358;2023-04-10T00:55:39;5.07;;;4.47;;
8046;SDS011;67150;42.516;23.358;2023-04-10T00:58:07;4.77;;;4.37;;
8046;SDS011;67150;42.516;23.358;2023-04-10T01:00:38;4.70;;;4.30;;
8046;SDS011;67150;42.516;23.358;2023-04-10T01:03:07;5.10;;;4.60;;
8046;SDS011;67150;42.516;23.358;2023-04-10T01:05:47;5.37;;;4.83;;
8046;SDS011;67150;42.516;23.358;2023-04-10T01:08:25;6.00;;;4.70;;
8046;SDS011;67150;42.516;23.358;2023-04-10T01:11:00;4.83;;;4.43;;
8046;SDS011;67150;42.516;23.358;2023-04-10T01:13:34;5.10;;;4.70;;
8046;SDS011;67150;42.516;23.358;2023-04-10T01:16:08;5.00;;;4.60;;
8046;SDS011;67150;42.516;23.358;2023-04-10T01:18:43;4.97;;;4.57;;
8046;SDS011;67150;42.516;23.358;2023-04-10T01:21:14;5.23;;;4.73;;
8046;SDS011;67150;42.516;23.358;2023-04-10T01:26:47;5.10;;;4.60;;
8046;SDS011;67150;42.516;23.358;2023-04-10T01:29:29;4.83;;;4.43;;
8046;SDS011;67150;42.516;23.358;2023-04-10T01:31:59;4.90;;;4.50;;
8046;SDS011;67150;42.516;23.358;2023-04-10T01:34:31;5.07;;;4.57;;
8046;SDS011;67150;42.516;23.358;2023-04-10T01:37:02;4.90;;;4.50;;
8046;SDS011;67150;42.516;23.358;2023-04-10T01:39:34;5.10;;;4.60;;
8046;SDS011;67150;42.516;23.358;2023-04-10T01:42:08;5.10;;;4.70;;
8046;SDS011;67150;42.516;23.358;2023-04-10T01:44:40;5.03;;;4.60;;
8046;SDS011;67150;42.516;23.358;2023-04-10T01:47:09;4.80;;;4.40;;
8046;SDS011;67150;42.516;23.358;2023-04-10T01:49:42;4.97;;;4.57;;
8046;SDS011;67150;42.516;23.358;2023-04-10T01:52:12;4.67;;;4.27;;
8046;SDS011;67150;42.516;23.358;2023-04-10T01:54:41;5.83;;;4.70;;
8046;SDS011;67150;42.516;23.358;2023-04-10T01:57:10;4.37;;;3.97;;
8046;SDS011;67150;42.516;23.358;2023-04-10T01:59:40;4.90;;;4.50;;
8046;SDS011;67150;42.516;23.358;2023-04-10T02:02:08;4.77;;;4.37;;
8046;SDS011;67150;42.516;23.358;2023-04-10T02:04:36;4.80;;;4.40;;
8046;SDS011;67150;42.516;23.358;2023-04-10T02:07:05;5.20;;;4.73;;
8046;SDS011;67150;42.516;23.358;2023-04-10T02:09:40;4.90;;;4.40;;
8046;SDS011;67150;42.516;23.358;2023-04-10T02:12:15;4.63;;;4.23;;
8046;SDS011;67150;42.516;23.358;2023-04-10T02:14:48;4.90;;;4.50;;
8046;SDS011;67150;42.516;23.358;2023-04-10T02:17:19;4.60;;;4.20;;
8046;SDS011;67150;42.516;23.358;2023-04-10T02:19:52;4.70;;;4.30;;
8046;SDS011;67150;42.516;23.358;2023-04-10T02:22:21;4.80;;;4.40;;
8046;SDS011;67150;42.516;23.358;2023-04-10T02:24:51;5.37;;;4.63;;
8046;SDS011;67150;42.516;23.358;2023-04-10T02:27:26;4.97;;;4.47;;
8046;SDS011;67150;42.516;23.358;2023-04-10T02:29:56;4.80;;;4.40;;
8046;SDS011;67150;42.516;23.358;2023-04-10T02:32:23;5.17;;;4.67;;
8046;SDS011;67150;42.516;23.358;2023-04-10T02:34:51;4.00;;;3.70;;
8046;SDS011;67150;42.516;23.358;2023-04-10T02:37:19;4.53;;;4.13;;
8046;SDS011;67150;42.516;23.358;2023-04-10T02:39:46;4.90;;;4.50;;
8046;SDS011;67150;42.516;23.358;2023-04-10T02:42:13;4.73;;;4.33;;
8046;SDS011;67150;42.516;23.358;2023-04-10T02:44:40;4.43;;;4.03;;
8046;SDS011;67150;42.516;23.358;2023-04-10T02:47:09;4.97;;;4.23;;
8046;SDS011;67150;42.516;23.358;2023-04-10T02:49:39;4.70;;;4.30;;
8046;SDS011;67150;42.516;23.358;2023-04-10T02:52:07;4.70;;;4.30;;
8046;SDS011;67150;42.516;23.358;2023-04-10T02:54:34;4.70;;;4.30;;
8046;SDS011;67150;42.516;23.358;2023-04-10T02:57:01;4.47;;;4.07;;
8046;SDS011;67150;42.516;23.358;2023-04-10T02:59:29;4.40;;;4.00;;
8046;SDS011;67150;42.516;23.358;2023-04-10T03:01:56;4.70;;;4.30;;
8046;SDS011;67150;42.516;23.358;2023-04-10T03:04:25;4.07;;;3.70;;
8046;SDS011;67150;42.516;23.358;2023-04-10T03:06:53;4.33;;;3.93;;
8046;SDS011;67150;42.516;23.358;2023-04-10T03:09:20;4.00;;;3.70;;
8046;SDS011;67150;42.516;23.358;2023-04-10T03:11:47;4.43;;;4.03;;
8046;SDS011;67150;42.516;23.358;2023-04-10T03:14:18;4.33;;;3.93;;
8046;SDS011;67150;42.516;23.358;2023-04-10T03:16:45;4.47;;;4.10;;
8046;SDS011;67150;42.516;23.358;2023-04-10T03:19:13;4.87;;;3.70;;
8046;SDS011;67150;42.516;23.358;2023-04-10T03:21:43;4.07;;;3.77;;
8046;SDS011;67150;42.516;23.358;2023-04-10T03:24:11;3.90;;;3.60;;
8046;SDS011;67150;42.516;23.358;2023-04-10T03:26:38;5.13;;;3.73;;
8046;SDS011;67150;42.516;23.358;2023-04-10T03:29:09;4.23;;;3.83;;
8046;SDS011;67150;42.516;23.358;2023-04-10T03:31:36;3.83;;;3.53;;
8046;SDS011;67150;42.516;23.358;2023-04-10T03:34:03;3.80;;;3.50;;
8046;SDS011;67150;42.516;23.358;2023-04-10T03:36:31;3.80;;;3.50;;
8046;SDS011;67150;42.516;23.358;2023-04-10T03:39:02;3.80;;;3.50;;
8046;SDS011;67150;42.516;23.358;2023-04-10T03:41:30;4.30;;;4.00;;
8046;SDS011;67150;42.516;23.358;2023-04-10T03:43:57;3.80;;;3.50;;
8046;SDS011;67150;42.516;23.358;2023-04-10T03:46:27;3.97;;;3.67;;
8046;SDS011;67150;42.516;23.358;2023-04-10T03:48:54;4.00;;;3.70;;
8046;SDS011;67150;42.516;23.358;2023-04-10T03:51:22;4.10;;;3.70;;
8046;SDS011;67150;42.516;23.358;2023-04-10T03:53:51;4.17;;;3.80;;
8046;SDS011;67150;42.516;23.358;2023-04-10T03:56:19;4.00;;;3.70;;
8046;SDS011;67150;42.516;23.358;2023-04-10T03:58:46;4.40;;;4.00;;
8046;SDS011;67150;42.516;23.358;2023-04-10T04:01:14;4.20;;;3.73;;
8046;SDS011;67150;42.516;23.358;2023-04-10T04:03:41;5.10;;;4.03;;
8046;SDS011;67150;42.516;23.358;2023-04-10T04:06:08;4.50;;;4.10;;
8046;SDS011;67150;42.516;23.358;2023-04-10T04:08:36;3.73;;;3.43;;
8046;SDS011;67150;42.516;23.358;2023-04-10T04:11:03;4.30;;;3.90;;
8046;SDS011;67150;42.516;23.358;2023-04-10T04:13:32;4.23;;;3.83;;
8046;SDS011;67150;42.516;23.358;2023-04-10T04:16:00;4.03;;;3.63;;
8046;SDS011;67150;42.516;23.358;2023-04-10T04:18:27;4.20;;;3.90;;
8046;SDS011;67150;42.516;23.358;2023-04-10T04:20:54;4.03;;;3.73;;
8046;SDS011;67150;42.516;23.358;2023-04-10T04:23:22;4.23;;;3.83;;
8046;SDS011;67150;42.516;23.358;2023-04-10T04:25:50;4.23;;;3.83;;
8046;SDS011;67150;42.516;23.358;2023-04-10T04:28:18;4.17;;;3.77;;
8046;SDS011;67150;42.516;23.358;2023-04-10T04:30:47;4.03;;;3.73;;
8046;SDS011;67150;42.516;23.358;2023-04-10T04:33:14;3.70;;;3.40;;
8046;SDS011;67150;42.516;23.358;2023-04-10T04:35:42;4.03;;;3.73;;
8046;SDS011;67150;42.516;23.358;2023-04-10T04:38:11;3.70;;;3.40;;
8046;SDS011;67150;42.516;23.358;2023-04-10T04:40:38;3.90;;;3.53;;
8046;SDS011;67150;42.516;23.358;2023-04-10T04:43:05;4.93;;;3.77;;
8046;SDS011;67150;42.516;23.358;2023-04-10T04:45:32;3.90;;;3.47;;
8046;SDS011;67150;42.516;23.358;2023-04-10T04:48:01;4.10;;;3.80;;
8046;SDS011;67150;42.516;23.358;2023-04-10T04:50:28;4.00;;;3.70;;
8046;SDS011;67150;42.516;23.358;2023-04-10T04:52:56;4.27;;;3.87;;
8046;SDS011;67150;42.516;23.358;2023-04-10T04:55:24;3.80;;;3.50;;
8046;SDS011;67150;42.516;23.358;2023-04-10T04:57:52;4.00;;;3.70;;
8046;SDS011;67150;42.516;23.358;2023-04-10T05:00:19;3.73;;;3.43;;
8046;SDS011;67150;42.516;23.358;2023-04-10T05:02:46;4.30;;;4.00;;
8046;SDS011;67150;42.516;23.358;2023-04-10T05:05:15;4.30;;;3.90;;
8046;SDS011;67150;42.516;23.358;2023-04-10T05:07:42;4.40;;;4.00;;
8046;SDS011;67150;42.516;23.358;2023-04-10T05:10:10;5.20;;;4.30;;
8046;SDS011;67150;42.516;23.358;2023-04-10T05:12:37;4.60;;;4.20;;
8046;SDS011;67150;42.516;23.358;2023-04-10T05:15:06;4.63;;;4.13;;
8046;SDS011;67150;42.516;23.358;2023-04-10T05:17:34;5.43;;;4.73;;
8046;SDS011;67150;42.516;23.358;2023-04-10T05:20:01;5.30;;;4.80;;
8046;SDS011;67150;42.516;23.358;2023-04-10T05:22:30;5.00;;;4.57;;
8046;SDS011;67150;42.516;23.358;2023-04-10T05:24:58;5.30;;;4.80;;
8046;SDS011;67150;42.516;23.358;2023-04-10T05:27:25;5.30;;;4.80;;
8046;SDS011;67150;42.516;23.358;2023-04-10T05:29:52;5.57;;;4.93;;
8046;SDS011;67150;42.516;23.358;2023-04-10T05:32:20;5.33;;;4.83;;
8046;SDS011;67150;42.516;23.358;2023-04-10T05:34:47;5.20;;;4.70;;
8046;SDS011;67150;42.516;23.358;2023-04-10T05:37:15;5.50;;;5.00;;
8046;SDS011;67150;42.516;23.358;2023-04-10T05:39:43;6.03;;;5.43;;
8046;SDS011;67150;42.516;23.358;2023-04-10T05:42:11;5.90;;;5.30;;
8046;SDS011;67150;42.516;23.358;2023-04-10T05:44:38;5.83;;;5.33;;
8046;SDS011;67150;42.516;23.358;2023-04-10T05:47:05;6.10;;;5.53;;
8046;SDS011;67150;42.516;23.358;2023-04-10T05:49:33;6.30;;;5.70;;
8046;SDS011;67150;42.516;23.358;2023-04-10T05:52:00;6.17;;;5.57;;
8046;SDS011;67150;42.516;23.358;2023-04-10T05:54:27;6.20;;;5.60;;
8046;SDS011;67150;42.516;23.358;2023-04-10T05:56:56;7.43;;;6.63;;
8046;SDS011;67150;42.516;23.358;2023-04-10T05:59:23;6.40;;;5.80;;
8046;SDS011;67150;42.516;23.358;2023-04-10T06:01:51;6.30;;;5.70;;
8046;SDS011;67150;42.516;23.358;2023-04-10T06:04:18;6.80;;;6.10;;
8046;SDS011;67150;42.516;23.358;2023-04-10T06:06:46;6.83;;;6.13;;
8046;SDS011;67150;42.516;23.358;2023-04-10T06:09:14;6.23;;;5.63;;
8046;SDS011;67150;42.516;23.358;2023-04-10T06:11:41;7.10;;;6.40;;
8046;SDS011;67150;42.516;23.358;2023-04-10T06:14:10;6.97;;;6.27;;
8046;SDS011;67150;42.516;23.358;2023-04-10T06:16:37;6.87;;;6.17;;
8046;SDS011;67150;42.516;23.358;2023-04-10T06:19:04;7.40;;;6.70;;
8046;SDS011;67150;42.516;23.358;2023-04-10T06:21:32;8.27;;;6.50;;
8046;SDS011;67150;42.516;23.358;2023-04-10T06:23:59;7.10;;;6.40;;
8046;SDS011;67150;42.516;23.358;2023-04-10T06:26:26;6.83;;;6.17;;
8046;SDS011;67150;42.516;23.358;2023-04-10T06:28:53;6.80;;;6.20;;
8046;SDS011;67150;42.516;23.358;2023-04-10T06:31:22;7.27;;;6.57;;
8046;SDS011;67150;42.516;23.358;2023-04-10T06:33:50;6.77;;;6.17;;
8046;SDS011;67150;42.516;23.358;2023-04-10T06:36:17;6.93;;;6.30;;
8046;SDS011;67150;42.516;23.358;2023-04-10T06:38:44;7.17;;;6.47;;
8046;SDS011;67150;42.516;23.358;2023-04-10T06:41:12;7.17;;;6.50;;
8046;SDS011;67150;42.516;23.358;2023-04-10T06:43:39;7.60;;;6.80;;
8046;SDS011;67150;42.516;23.358;2023-04-10T06:46:06;7.17;;;6.47;;
8046;SDS011;67150;42.516;23.358;2023-04-10T06:48:35;7.40;;;6.70;;
8046;SDS011;67150;42.516;23.358;2023-04-10T06:51:02;7.33;;;6.60;;
8046;SDS011;67150;42.516;23.358;2023-04-10T06:53:30;7.77;;;6.97;;
8046;SDS011;67150;42.516;23.358;2023-04-10T06:55:57;7.50;;;6.73;;
8046;SDS011;67150;42.516;23.358;2023-04-10T06:58:24;7.23;;;6.53;;
8046;SDS011;67150;42.516;23.358;2023-04-10T07:00:52;7.20;;;6.50;;
8046;SDS011;67150;42.516;23.358;2023-04-10T07:03:19;8.03;;;7.23;;
8046;SDS011;67150;42.516;23.358;2023-04-10T07:05:48;8.20;;;7.40;;
8046;SDS011;67150;42.516;23.358;2023-04-10T07:08:15;7.43;;;6.73;;
8046;SDS011;67150;42.516;23.358;2023-04-10T07:10:43;7.80;;;7.03;;
8046;SDS011;67150;42.516;23.358;2023-04-10T07:13:10;8.23;;;7.27;;
8046;SDS011;67150;42.516;23.358;2023-04-10T07:15:37;7.73;;;6.93;;
8046;SDS011;67150;42.516;23.358;2023-04-10T07:18:04;7.40;;;6.70;;
8046;SDS011;67150;42.516;23.358;2023-04-10T07:20:32;8.03;;;7.23;;
8046;SDS011;67150;42.516;23.358;2023-04-10T07:23:00;10.03;;;7.10;;
8046;SDS011;67150;42.516;23.358;2023-04-10T07:25:28;7.73;;;6.97;;
8046;SDS011;67150;42.516;23.358;2023-04-10T07:27:55;8.00;;;7.20;;
8046;SDS011;67150;42.516;23.358;2023-04-10T07:30:22;8.83;;;7.97;;
8046;SDS011;67150;42.516;23.358;2023-04-10T07:32:49;7.87;;;7.17;;
8046;SDS011;67150;42.516;23.358;2023-04-10T07:35:17;8.10;;;7.30;;
8046;SDS011;67150;42.516;23.358;2023-04-10T07:37:44;7.80;;;7.00;;
8046;SDS011;67150;42.516;23.358;2023-04-10T07:40:17;7.83;;;7.03;;
8046;SDS011;67150;42.516;23.358;2023-04-10T07:42:45;7.40;;;6.70;;
8046;SDS011;67150;42.516;23.358;2023-04-10T07:45:12;8.20;;;7.40;;
8046;SDS011;67150;42.516;23.358;2023-04-10T07:47:39;7.50;;;6.80;;
8046;SDS011;67150;42.516;23.358;2023-04-10T07:50:07;7.83;;;7.03;;
8046;SDS011;67150;42.516;23.358;2023-04-10T07:52:35;7.87;;;7.07;;
8046;SDS011;67150;42.516;23.358;2023-04-10T07:55:02;8.37;;;7.57;;
8046;SDS011;67150;42.516;23.358;2023-04-10T07:57:31;8.70;;;7.80;;
8046;SDS011;67150;42.516;23.358;2023-04-10T07:59:59;7.40;;;6.70;;
8046;SDS011;67150;42.516;23.358;2023-04-10T08:02:26;8.27;;;7.47;;
8046;SDS011;67150;42.516;23.358;2023-04-10T08:04:53;8.50;;;7.60;;
8046;SDS011;67150;42.516;23.358;2023-04-10T08:07:21;8.37;;;7.57;;
8046;SDS011;67150;42.516;23.358;2023-04-10T08:09:48;7.80;;;7.00;;
8046;SDS011;67150;42.516;23.358;2023-04-10T08:12:15;8.00;;;7.30;;
8046;SDS011;67150;42.516;23.358;2023-04-10T08:14:44;8.80;;;7.90;;
8046;SDS011;67150;42.516;23.358;2023-04-10T08:17:11;8.40;;;7.60;;
8046;SDS011;67150;42.516;23.358;2023-04-10T08:19:40;8.70;;;7.83;;
8046;SDS011;67150;42.516;23.358;2023-04-10T08:22:07;8.30;;;7.50;;
8046;SDS011;67150;42.516;23.358;2023-04-10T08:24:35;9.67;;;7.50;;
8046;SDS011;67150;42.516;23.358;2023-04-10T08:27:02;8.07;;;7.27;;
8046;SDS011;67150;42.516;23.358;2023-04-10T08:29:29;8.20;;;7.40;;
8046;SDS011;67150;42.516;23.358;2023-04-10T08:31:58;8.50;;;7.70;;
8046;SDS011;67150;42.516;23.358;2023-04-10T08:34:25;8.60;;;7.80;;
8046;SDS011;67150;42.516;23.358;2023-04-10T08:36:53;8.63;;;7.73;;
8046;SDS011;67150;42.516;23.358;2023-04-10T08:39:20;9.97;;;8.10;;
8046;SDS011;67150;42.516;23.358;2023-04-10T08:41:47;8.13;;;7.33;;
8046;SDS011;67150;42.516;23.358;2023-04-10T08:44:15;8.77;;;7.87;;
8046;SDS011;67150;42.516;23.358;2023-04-10T08:46:42;7.63;;;6.93;;
8046;SDS011;67150;42.516;23.358;2023-04-10T08:49:14;9.57;;;7.37;;
8046;SDS011;67150;42.516;23.358;2023-04-10T08:51:45;8.87;;;7.97;;
8046;SDS011;67150;42.516;23.358;2023-04-10T08:54:17;8.63;;;7.73;;
8046;SDS011;67150;42.516;23.358;2023-04-10T08:56:48;8.60;;;7.70;;
8046;SDS011;67150;42.516;23.358;2023-04-10T08:59:16;8.33;;;7.53;;
8046;SDS011;67150;42.516;23.358;2023-04-10T09:01:44;8.50;;;7.60;;
8046;SDS011;67150;42.516;23.358;2023-04-10T09:04:13;8.47;;;7.60;;
8046;SDS011;67150;42.516;23.358;2023-04-10T09:06:42;8.80;;;8.00;;
8046;SDS011;67150;42.516;23.358;2023-04-10T09:09:09;9.07;;;8.17;;
8046;SDS011;67150;42.516;23.358;2023-04-10T09:11:55;8.37;;;7.57;;
8046;SDS011;67150;42.516;23.358;2023-04-10T09:14:25;8.30;;;7.47;;
8046;SDS011;67150;42.516;23.358;2023-04-10T09:16:53;8.53;;;7.70;;
8046;SDS011;67150;42.516;23.358;2023-04-10T09:19:39;8.77;;;7.83;;
8046;SDS011;67150;42.516;23.358;2023-04-10T09:22:06;8.77;;;7.87;;
8046;SDS011;67150;42.516;23.358;2023-04-10T09:24:34;9.37;;;8.40;;
8046;SDS011;67150;42.516;23.358;2023-04-10T09:27:03;8.67;;;7.87;;
8046;SDS011;67150;42.516;23.358;2023-04-10T09:29:43;8.70;;;7.90;;
8046;SDS011;67150;42.516;23.358;2023-04-10T09:32:24;8.20;;;7.40;;
8046;SDS011;67150;42.516;23.358;2023-04-10T09:35:06;8.80;;;7.90;;
8046;SDS011;67150;42.516;23.358;2023-04-10T09:37:34;8.87;;;7.97;;
8046;SDS011;67150;42.516;23.358;2023-04-10T09:40:02;7.80;;;7.07;;
8046;SDS011;67150;42.516;23.358;2023-04-10T09:42:30;8.87;;;8.07;;
8046;SDS011;67150;42.516;23.358;2023-04-10T09:44:59;8.43;;;7.63;;
8046;SDS011;67150;42.516;23.358;2023-04-10T09:47:27;8.07;;;7.33;;
8046;SDS011;67150;42.516;23.358;2023-04-10T09:49:55;8.93;;;8.03;;
8046;SDS011;67150;42.516;23.358;2023-04-10T09:52:27;9.00;;;8.10;;
8046;SDS011;67150;42.516;23.358;2023-04-10T09:54:56;9.33;;;8.27;;
8046;SDS011;67150;42.516;23.358;2023-04-10T09:57:26;8.77;;;7.90;;
8046;SDS011;67150;42.516;23.358;2023-04-10T09:59:54;9.23;;;7.77;;
8046;SDS011;67150;42.516;23.358;2023-04-10T10:02:23;8.87;;;8.00;;
8046;SDS011;67150;42.516;23.358;2023-04-10T10:04:51;8.70;;;7.87;;
8046;SDS011;67150;42.516;23.358;2023-04-10T10:07:20;8.10;;;7.30;;
8046;SDS011;67150;42.516;23.358;2023-04-10T10:09:50;9.77;;;8.33;;
8046;SDS011;67150;42.516;23.358;2023-04-10T10:12:19;8.97;;;8.07;;
8046;SDS011;67150;42.516;23.358;2023-04-10T10:14:50;8.77;;;7.87;;
8046;SDS011;67150;42.516;23.358;2023-04-10T10:17:23;8.60;;;7.70;;
8046;SDS011;67150;42.516;23.358;2023-04-10T10:19:58;8.07;;;7.20;;
8046;SDS011;67150;42.516;23.358;2023-04-10T10:22:28;8.83;;;7.93;;
8046;SDS011;67150;42.516;23.358;2023-04-10T10:24:57;9.17;;;8.27;;
8046;SDS011;67150;42.516;23.358;2023-04-10T10:27:26;8.63;;;7.80;;
8046;SDS011;67150;42.516;23.358;2023-04-10T10:29:56;9.23;;;8.30;;
8046;SDS011;67150;42.516;23.358;2023-04-10T10:32:25;9.23;;;8.33;;
8046;SDS011;67150;42.516;23.358;2023-04-10T10:34:53;8.00;;;7.30;;
8046;SDS011;67150;42.516;23.358;2023-04-10T10:37:22;8.77;;;7.90;;
8046;SDS011;67150;42.516;23.358;2023-04-10T10:39:52;8.83;;;7.90;;
8046;SDS011;67150;42.516;23.358;2023-04-10T10:42:29;8.80;;;7.90;;
8046;SDS011;67150;42.516;23.358;2023-04-10T10:45:04;8.90;;;8.03;;
8046;SDS011;67150;42.516;23.358;2023-04-10T10:47:39;9.37;;;8.23;;
8046;SDS011;67150;42.516;23.358;2023-04-10T10:50:08;7.83;;;7.13;;
8046;SDS011;67150;42.516;23.358;2023-04-10T10:52:39;8.47;;;7.60;;
8046;SDS011;67150;42.516;23.358;2023-04-10T10:55:29;8.03;;;7.23;;
8046;SDS011;67150;42.516;23.358;2023-04-10T10:58:01;10.07;;;7.90;;
8046;SDS011;67150;42.516;23.358;2023-04-10T11:03:31;8.50;;;7.70;;
8046;SDS011;67150;42.516;23.358;2023-04-10T11:05:59;8.43;;;7.47;;
8046;SDS011;67150;42.516;23.358;2023-04-10T11:08:41;8.70;;;7.80;;
8046;SDS011;67150;42.516;23.358;2023-04-10T11:11:12;8.27;;;7.30;;
8046;SDS011;67150;42.516;23.358;2023-04-10T11:16:45;9.07;;;7.83;;
8046;SDS011;67150;42.516;23.358;2023-04-10T11:19:13;8.00;;;7.27;;
8046;SDS011;67150;42.516;23.358;2023-04-10T11:22:02;8.23;;;7.43;;
8046;SDS011;67150;42.516;23.358;2023-04-10T11:27:37;8.50;;;7.70;;
8046;SDS011;67150;42.516;23.358;2023-04-10T11:32:56;8.20;;;7.40;;
8046;SDS011;67150;42.516;23.358;2023-04-10T11:35:24;8.30;;;7.50;;
8046;SDS011;67150;42.516;23.358;2023-04-10T11:38:07;8.37;;;7.57;;
8046;SDS011;67150;42.516;23.358;2023-04-10T11:40:57;8.57;;;7.77;;
8046;SDS011;67150;42.516;23.358;2023-04-10T11:43:27;8.13;;;7.33;;
8046;SDS011;67150;42.516;23.358;2023-04-10T11:45:59;8.23;;;7.43;;
8046;SDS011;67150;42.516;23.358;2023-04-10T11:48:28;8.07;;;7.33;;
8046;SDS011;67150;42.516;23.358;2023-04-10T11:50:55;8.00;;;7.20;;
8046;SDS011;67150;42.516;23.358;2023-04-10T11:53:24;8.30;;;7.50;;
8046;SDS011;67150;42.516;23.358;2023-04-10T11:55:51;9.03;;;8.10;;
8046;SDS011;67150;42.516;23.358;2023-04-10T11:58:22;8.43;;;7.57;;
8046;SDS011;67150;42.516;23.358;2023-04-10T12:01:01;8.17;;;7.37;;
8046;SDS011;67150;42.516;23.358;2023-04-10T12:03:31;8.93;;;8.03;;
8046;SDS011;67150;42.516;23.358;2023-04-10T12:06:02;8.53;;;7.73;;
8046;SDS011;67150;42.516;23.358;2023-04-10T12:08:32;7.70;;;7.00;;
8046;SDS011;67150;42.516;23.358;2023-04-10T12:11:00;7.80;;;7.10;;
8046;SDS011;67150;42.516;23.358;2023-04-10T12:13:29;8.13;;;7.40;;
8046;SDS011;67150;42.516;23.358;2023-04-10T12:15:57;7.53;;;6.83;;
8046;SDS011;67150;42.516;23.358;2023-04-10T12:18:27;8.50;;;6.93;;
8046;SDS011;67150;42.516;23.358;2023-04-10T12:20:55;8.73;;;7.90;;
8046;SDS011;67150;42.516;23.358;2023-04-10T12:23:24;7.93;;;7.23;;
8046;SDS011;67150;42.516;23.358;2023-04-10T12:25:53;7.83;;;7.13;;
8046;SDS011;67150;42.516;23.358;2023-04-10T12:28:34;8.03;;;7.23;;
8046;SDS011;67150;42.516;23.358;2023-04-10T12:31:02;8.47;;;7.67;;
8046;SDS011;67150;42.516;23.358;2023-04-10T12:33:31;7.93;;;7.23;;
8046;SDS011;67150;42.516;23.358;2023-04-10T12:35:58;7.93;;;7.13;;
8046;SDS011;67150;42.516;23.358;2023-04-10T12:38:38;8.10;;;7.30;;
8046;SDS011;67150;42.516;23.358;2023-04-10T12:41:07;7.60;;;6.90;;
8046;SDS011;67150;42.516;23.358;2023-04-10T12:43:36;7.80;;;7.10;;
8046;SDS011;67150;42.516;23.358;2023-04-10T12:46:05;7.37;;;6.67;;
8046;SDS011;67150;42.516;23.358;2023-04-10T12:48:35;7.37;;;6.67;;
8046;SDS011;67150;42.516;23.358;2023-04-10T12:51:03;8.00;;;7.20;;
8046;SDS011;67150;42.516;23.358;2023-04-10T12:53:30;7.70;;;7.00;;
8046;SDS011;67150;42.516;23.358;2023-04-10T12:56:08;8.07;;;7.27;;
8046;SDS011;67150;42.516;23.358;2023-04-10T12:58:37;8.20;;;7.40;;
8046;SDS011;67150;42.516;23.358;2023-04-10T13:01:07;8.10;;;7.33;;
8046;SDS011;67150;42.516;23.358;2023-04-10T13:03:36;8.00;;;7.20;;
8046;SDS011;67150;42.516;23.358;2023-04-10T13:06:04;7.43;;;6.73;;
8046;SDS011;67150;42.516;23.358;2023-04-10T13:08:32;8.93;;;7.37;;
8046;SDS011;67150;42.516;23.358;2023-04-10T13:11:00;8.33;;;7.40;;
8046;SDS011;67150;42.516;23.358;2023-04-10T13:13:28;7.93;;;7.13;;
8046;SDS011;67150;42.516;23.358;2023-04-10T13:15:57;7.27;;;6.57;;
8046;SDS011;67150;42.516;23.358;2023-04-10T13:18:24;7.30;;;6.60;;
8046;SDS011;67150;42.516;23.358;2023-04-10T13:20:53;7.43;;;6.73;;
8046;SDS011;67150;42.516;23.358;2023-04-10T13:23:20;7.30;;;6.60;;
8046;SDS011;67150;42.516;23.358;2023-04-10T13:25:48;7.07;;;6.43;;
8046;SDS011;67150;42.516;23.358;2023-04-10T13:28:15;7.83;;;7.13;;
8046;SDS011;67150;42.516;23.358;2023-04-10T13:30:43;7.20;;;6.50;;
8046;SDS011;67150;42.516;23.358;2023-04-10T13:33:10;6.90;;;6.30;;
8046;SDS011;67150;42.516;23.358;2023-04-10T13:35:37;7.30;;;6.60;;
8046;SDS011;67150;42.516;23.358;2023-04-10T13:38:06;7.10;;;6.40;;
8046;SDS011;67150;42.516;23.358;2023-04-10T13:40:35;7.37;;;6.67;;
8046;SDS011;67150;42.516;23.358;2023-04-10T13:43:03;7.47;;;6.77;;
8046;SDS011;67150;42.516;23.358;2023-04-10T13:45:30;6.90;;;6.30;;
8046;SDS011;67150;42.516;23.358;2023-04-10T13:47:59;6.60;;;6.00;;
8046;SDS011;67150;42.516;23.358;2023-04-10T13:50:26;6.93;;;6.23;;
8046;SDS011;67150;42.516;23.358;2023-04-10T13:52:53;6.87;;;6.17;;
8046;SDS011;67150;42.516;23.358;2023-04-10T13:55:22;6.90;;;6.30;;
8046;SDS011;67150;42.516;23.358;2023-04-10T13:57:49;7.10;;;6.40;;
8046;SDS011;67150;42.516;23.358;2023-04-10T14:00:17;6.70;;;6.10;;
8046;SDS011;67150;42.516;23.358;2023-04-10T14:02:45;6.63;;;6.03;;
8046;SDS011;67150;42.516;23.358;2023-04-10T14:05:12;7.47;;;6.33;;
8046;SDS011;67150;42.516;23.358;2023-04-10T14:07:39;7.60;;;6.87;;
8046;SDS011;67150;42.516;23.358;2023-04-10T14:10:07;7.03;;;6.33;;
8046;SDS011;67150;42.516;23.358;2023-04-10T14:12:36;7.30;;;6.60;;
8046;SDS011;67150;42.516;23.358;2023-04-10T14:15:04;7.00;;;6.30;;
8046;SDS011;67150;42.516;23.358;2023-04-10T14:17:32;7.40;;;6.50;;
8046;SDS011;67150;42.516;23.358;2023-04-10T14:20:00;7.07;;;6.37;;
8046;SDS011;67150;42.516;23.358;2023-04-10T14:22:27;6.67;;;6.07;;
8046;SDS011;67150;42.516;23.358;2023-04-10T14:24:56;7.17;;;6.37;;
8046;SDS011;67150;42.516;23.358;2023-04-10T14:27:23;7.10;;;6.50;;
8046;SDS011;67150;42.516;23.358;2023-04-10T14:29:52;7.17;;;6.53;;
8046;SDS011;67150;42.516;23.358;2023-04-10T14:32:20;7.20;;;6.07;;
8046;SDS011;67150;42.516;23.358;2023-04-10T14:34:47;6.67;;;6.07;;
8046;SDS011;67150;42.516;23.358;2023-04-10T14:37:14;7.40;;;6.70;;
8046;SDS011;67150;42.516;23.358;2023-04-10T14:39:43;7.03;;;6.40;;
8046;SDS011;67150;42.516;23.358;2023-04-10T14:42:10;6.67;;;6.07;;
8046;SDS011;67150;42.516;23.358;2023-04-10T14:44:37;7.43;;;6.60;;
8046;SDS011;67150;42.516;23.358;2023-04-10T14:47:06;7.57;;;6.87;;
8046;SDS011;67150;42.516;23.358;2023-04-10T14:49:34;7.13;;;6.53;;
8046;SDS011;67150;42.516;23.358;2023-04-10T14:52:02;7.70;;;6.90;;
8046;SDS011;67150;42.516;23.358;2023-04-10T14:54:30;8.30;;;7.13;;
8046;SDS011;67150;42.516;23.358;2023-04-10T14:56:57;7.27;;;6.57;;
8046;SDS011;67150;42.516;23.358;2023-04-10T14:59:24;7.43;;;6.73;;
8046;SDS011;67150;42.516;23.358;2023-04-10T15:01:51;7.70;;;6.90;;
8046;SDS011;67150;42.516;23.358;2023-04-10T15:04:20;8.17;;;7.20;;
8046;SDS011;67150;42.516;23.358;2023-04-10T15:06:47;7.57;;;6.77;;
8046;SDS011;67150;42.516;23.358;2023-04-10T15:09:16;8.17;;;7.37;;
8046;SDS011;67150;42.516;23.358;2023-04-10T15:11:43;7.60;;;6.90;;
8046;SDS011;67150;42.516;23.358;2023-04-10T15:14:11;7.33;;;6.63;;